createdAt,value
2022-08-30T00:01:18.271Z,8.02
2022-08-30T00:03:47.211Z,8.88
2022-08-30T00:06:16.771Z,7.78
2022-08-30T00:08:44.831Z,8.38
2022-08-30T00:11:14.726Z,8.23
2022-08-30T00:13:43.859Z,8.10
2022-08-30T00:16:12.600Z,7.07
2022-08-30T00:18:40.825Z,8.02
2022-08-30T00:21:09.765Z,7.93
2022-08-30T00:23:38.229Z,8.35
2022-08-30T00:26:06.643Z,8.02
2022-08-30T00:28:35.292Z,8.57
2022-08-30T00:31:03.650Z,8.40
2022-08-30T00:33:31.575Z,8.52
2022-08-30T00:36:00.157Z,8.30
2022-08-30T00:38:28.289Z,8.35
2022-08-30T00:40:56.485Z,9.85
2022-08-30T00:43:27.862Z,9.18
2022-08-30T00:45:56.267Z,8.55
2022-08-30T00:48:24.743Z,7.53
2022-08-30T00:50:59.266Z,7.72
2022-08-30T00:53:28.679Z,7.38
2022-08-30T00:55:57.143Z,6.90
2022-08-30T00:58:30.633Z,7.70
2022-08-30T01:00:59.614Z,7.28
2022-08-30T01:03:28.035Z,7.30
2022-08-30T01:05:57.420Z,7.53
2022-08-30T01:08:25.339Z,8.10
2022-08-30T01:10:54.233Z,7.38
2022-08-30T01:13:23.160Z,7.32
2022-08-30T01:15:51.823Z,7.47
2022-08-30T01:18:22.201Z,8.52
2022-08-30T01:20:56.686Z,8.82
2022-08-30T01:23:26.132Z,8.40
2022-08-30T01:25:56.208Z,7.97
2022-08-30T01:28:28.578Z,8.02
2022-08-30T01:30:56.711Z,9.52
2022-08-30T01:33:25.064Z,9.95
2022-08-30T01:35:54.519Z,8.70
2022-08-30T01:38:24.990Z,7.78
2022-08-30T01:40:57.859Z,9.83
2022-08-30T01:43:26.177Z,9.23
2022-08-30T01:45:54.077Z,9.77
2022-08-30T01:48:22.276Z,8.75
2022-08-30T01:50:58.083Z,8.95
2022-08-30T01:53:25.956Z,9.50
2022-08-30T01:55:54.118Z,7.93
2022-08-30T01:58:22.325Z,6.95
2022-08-30T02:00:50.434Z,7.88
2022-08-30T02:03:18.543Z,7.68
2022-08-30T02:05:47.105Z,7.68
2022-08-30T02:08:15.016Z,7.22
2022-08-30T02:10:43.348Z,7.32
2022-08-30T02:13:11.527Z,8.32
2022-08-30T02:15:41.590Z,7.25
2022-08-30T02:18:11.864Z,7.30
2022-08-30T02:20:41.089Z,7.47
2022-08-30T02:23:09.076Z,7.13
2022-08-30T02:25:37.189Z,7.20
2022-08-30T02:28:06.484Z,6.65
2022-08-30T02:30:35.140Z,8.10
2022-08-30T02:33:03.343Z,7.25
2022-08-30T02:35:31.325Z,7.40
2022-08-30T02:37:59.436Z,8.20
2022-08-30T02:40:27.540Z,9.27
2022-08-30T02:42:55.662Z,9.10
2022-08-30T02:45:25.536Z,9.38
2022-08-30T02:47:53.878Z,8.38
2022-08-30T02:50:21.819Z,9.23
2022-08-30T02:52:50.273Z,8.60
2022-08-30T02:55:18.682Z,8.75
2022-08-30T02:57:46.932Z,9.77
2022-08-30T03:00:16.612Z,10.45
2022-08-30T03:02:44.840Z,10.68
2022-08-30T03:05:14.502Z,10.60
2022-08-30T03:07:42.670Z,10.52
2022-08-30T03:10:11.230Z,9.65
2022-08-30T03:12:42.921Z,10.57
2022-08-30T03:15:12.030Z,10.50
2022-08-30T03:17:40.058Z,9.38
2022-08-30T03:20:08.884Z,9.30
2022-08-30T03:22:37.052Z,9.68
2022-08-30T03:25:05.800Z,10.05
2022-08-30T03:27:34.140Z,9.35
2022-08-30T03:30:02.084Z,9.32
2022-08-30T03:32:30.316Z,6.57
2022-08-30T03:34:58.231Z,7.55
2022-08-30T03:37:27.470Z,6.95
2022-08-30T03:39:58.443Z,6.40
2022-08-30T03:42:26.468Z,6.75
2022-08-30T03:44:55.451Z,7.18
2022-08-30T03:47:23.712Z,7.45
2022-08-30T03:49:51.696Z,7.72
2022-08-30T03:52:19.715Z,8.25
2022-08-30T03:54:47.712Z,8.13
2022-08-30T03:57:19.969Z,7.20
2022-08-30T03:59:48.319Z,6.47
2022-08-30T04:02:16.313Z,7.20
2022-08-30T04:04:44.519Z,5.80
2022-08-30T04:07:12.733Z,6.60
2022-08-30T04:09:40.886Z,6.43
2022-08-30T04:12:08.944Z,5.78
2022-08-30T04:14:36.863Z,7.88
2022-08-30T04:17:04.743Z,7.93
2022-08-30T04:19:32.712Z,9.55
2022-08-30T04:22:00.518Z,8.35
2022-08-30T04:24:28.169Z,8.40
2022-08-30T04:26:56.072Z,9.95
2022-08-30T04:29:24.145Z,9.48
2022-08-30T04:31:52.031Z,8.18
2022-08-30T04:34:20.268Z,8.68
2022-08-30T04:36:49.438Z,8.40
2022-08-30T04:39:18.850Z,8.75
2022-08-30T04:41:46.578Z,9.13
2022-08-30T04:44:19.587Z,10.25
2022-08-30T04:46:47.872Z,9.55
2022-08-30T04:49:15.906Z,10.80
2022-08-30T04:51:43.855Z,9.38
2022-08-30T04:54:11.574Z,9.13
2022-08-30T04:56:39.553Z,8.93
2022-08-30T04:59:07.623Z,8.68
2022-08-30T05:01:45.095Z,7.90
2022-08-30T05:04:14.408Z,9.00
2022-08-30T05:06:42.915Z,8.38
2022-08-30T05:09:10.993Z,9.18
2022-08-30T05:11:40.200Z,8.50
2022-08-30T05:14:08.365Z,9.40
2022-08-30T05:16:36.363Z,9.20
2022-08-30T05:19:04.461Z,8.98
2022-08-30T05:21:32.394Z,9.20
2022-08-30T05:24:01.259Z,9.32
2022-08-30T05:26:31.410Z,10.73
2022-08-30T05:28:59.634Z,9.80
2022-08-30T05:31:29.233Z,10.18
2022-08-30T05:33:57.830Z,10.77
2022-08-30T05:36:27.583Z,9.55
2022-08-30T05:38:56.092Z,9.70
2022-08-30T05:41:26.306Z,9.52
2022-08-30T05:43:55.601Z,10.48
2022-08-30T05:46:24.015Z,10.27
2022-08-30T05:48:52.596Z,10.55
2022-08-30T05:51:22.042Z,9.98
2022-08-30T05:53:50.664Z,8.82
2022-08-30T05:56:28.862Z,9.00
2022-08-30T05:58:56.842Z,9.55
2022-08-30T06:01:29.654Z,9.27
2022-08-30T06:04:02.971Z,10.40
2022-08-30T06:06:32.958Z,9.73
2022-08-30T06:09:00.866Z,9.57
2022-08-30T06:11:30.490Z,9.80
2022-08-30T06:13:59.236Z,10.57
2022-08-30T06:16:28.331Z,11.10
2022-08-30T06:18:57.268Z,11.43
2022-08-30T06:21:27.606Z,10.60
2022-08-30T06:23:56.196Z,10.73
2022-08-30T06:26:24.564Z,10.75
2022-08-30T06:28:52.554Z,10.15
2022-08-30T06:31:21.427Z,9.52
2022-08-30T06:33:49.446Z,9.82
2022-08-30T06:36:20.403Z,9.70
2022-08-30T06:38:48.825Z,8.20
2022-08-30T06:41:20.180Z,9.95
2022-08-30T06:46:19.206Z,8.20
2022-08-30T06:48:48.424Z,9.63
2022-08-30T06:51:16.990Z,9.00
2022-08-30T06:53:47.516Z,8.93
2022-08-30T06:56:16.892Z,9.05
2022-08-30T06:58:45.402Z,8.05
2022-08-30T07:01:15.063Z,8.18
2022-08-30T07:03:43.134Z,7.68
2022-08-30T07:06:11.694Z,8.15
2022-08-30T07:08:39.925Z,8.02
2022-08-30T07:11:08.824Z,7.60
2022-08-30T07:13:37.733Z,7.20
2022-08-30T07:16:12.968Z,8.23
2022-08-30T07:18:55.759Z,7.97
2022-08-30T07:21:29.104Z,8.15
2022-08-30T07:23:58.678Z,8.98
2022-08-30T07:26:31.441Z,8.30
2022-08-30T07:28:59.548Z,8.85
2022-08-30T07:31:27.600Z,8.43
2022-08-30T07:33:56.101Z,8.30
2022-08-30T07:36:24.292Z,8.55
2022-08-30T07:38:52.858Z,8.65
2022-08-30T07:41:21.896Z,8.05
2022-08-30T07:43:49.808Z,8.63
2022-08-30T07:46:18.486Z,8.75
2022-08-30T07:48:46.775Z,8.40
2022-08-30T07:51:17.764Z,8.65
2022-08-30T07:53:45.796Z,7.60
2022-08-30T07:56:14.110Z,8.05
2022-08-30T07:58:42.089Z,8.10
2022-08-30T08:01:11.380Z,8.88
2022-08-30T08:03:41.086Z,7.57
2022-08-30T08:06:10.472Z,7.78
2022-08-30T08:08:39.146Z,8.20
2022-08-30T08:11:09.102Z,8.07
2022-08-30T08:13:52.967Z,8.07
2022-08-30T08:16:23.435Z,8.43
2022-08-30T08:18:51.378Z,9.00
2022-08-30T08:21:19.264Z,7.63
2022-08-30T08:23:47.177Z,8.38
2022-08-30T08:26:15.431Z,8.20
2022-08-30T08:28:44.068Z,7.85
2022-08-30T08:31:15.855Z,7.25
2022-08-30T08:33:43.818Z,8.10
2022-08-30T08:36:11.869Z,7.75
2022-08-30T08:38:39.890Z,8.23
2022-08-30T08:41:31.158Z,8.27
2022-08-30T08:43:59.376Z,8.18
2022-08-30T08:46:34.164Z,8.63
2022-08-30T08:49:06.908Z,8.02
2022-08-30T08:51:55.692Z,8.25
2022-08-30T08:54:32.037Z,8.52
2022-08-30T08:57:00.496Z,8.43
2022-08-30T08:59:28.517Z,9.02
2022-08-30T09:01:59.570Z,9.23
2022-08-30T09:07:01.094Z,9.30
2022-08-30T09:09:30.762Z,9.05
2022-08-30T09:11:58.578Z,8.63
2022-08-30T09:14:30.161Z,8.15
2022-08-30T09:17:02.904Z,7.35
2022-08-30T09:19:34.236Z,7.95
2022-08-30T09:22:04.158Z,7.53
2022-08-30T09:24:46.516Z,6.97
2022-08-30T09:27:24.081Z,6.63
2022-08-30T09:30:21.416Z,7.78
2022-08-30T09:33:00.085Z,7.43
2022-08-30T09:35:28.075Z,7.78
2022-08-30T09:38:05.453Z,7.05
2022-08-30T09:40:36.716Z,7.22
2022-08-30T09:43:24.135Z,7.28
2022-08-30T09:46:03.158Z,6.25
2022-08-30T09:48:31.380Z,7.10
2022-08-30T09:51:14.853Z,8.23
2022-08-30T09:54:16.739Z,7.38
2022-08-30T09:56:42.207Z,6.45
2022-08-30T09:59:29.038Z,6.88
2022-08-30T10:02:07.737Z,6.68
2022-08-30T10:04:58.158Z,6.55
2022-08-30T10:07:38.259Z,6.70
2022-08-30T10:10:10.556Z,6.82
2022-08-30T10:15:06.456Z,6.50
2022-08-30T10:17:41.599Z,6.40
2022-08-30T10:20:09.919Z,6.70
2022-08-30T10:22:43.528Z,6.38
2022-08-30T10:25:26.695Z,6.43
2022-08-30T10:28:04.947Z,6.30
2022-08-30T10:30:35.200Z,5.65
2022-08-30T10:33:15.984Z,6.80
2022-08-30T10:35:49.604Z,6.35
2022-08-30T10:38:23.718Z,6.50
2022-08-30T10:41:13.623Z,6.15
2022-08-30T10:43:41.574Z,6.45
2022-08-30T10:46:12.436Z,6.78
2022-08-30T10:48:44.459Z,6.45
2022-08-30T10:51:34.054Z,5.88
2022-08-30T10:54:11.049Z,6.68
2022-08-30T10:56:41.848Z,6.05
2022-08-30T10:59:12.014Z,6.60
2022-08-30T11:01:47.040Z,6.32
2022-08-30T11:04:27.977Z,5.80
2022-08-30T11:07:02.128Z,5.97
2022-08-30T11:09:42.548Z,5.13
2022-08-30T11:12:16.730Z,5.25
2022-08-30T11:14:47.252Z,4.90
2022-08-30T11:17:24.305Z,4.90
2022-08-30T11:19:52.606Z,5.50
2022-08-30T11:22:23.969Z,4.88
2022-08-30T11:25:10.263Z,5.30
2022-08-30T11:27:41.838Z,5.80
2022-08-30T11:30:28.100Z,4.90
2022-08-30T11:33:09.357Z,4.82
2022-08-30T11:35:48.153Z,4.55
2022-08-30T11:38:19.457Z,5.30
2022-08-30T11:40:48.574Z,4.30
2022-08-30T11:43:36.718Z,4.80
2022-08-30T11:46:20.660Z,4.65
2022-08-30T11:48:54.041Z,4.68
2022-08-30T11:51:43.656Z,5.05
2022-08-30T11:54:14.729Z,4.88
2022-08-30T11:56:59.113Z,4.63
2022-08-30T11:59:29.846Z,4.55
2022-08-30T12:01:58.420Z,4.72
2022-08-30T12:04:38.899Z,4.10
2022-08-30T12:07:09.204Z,4.20
2022-08-30T12:09:37.314Z,4.38
2022-08-30T12:12:09.385Z,3.88
2022-08-30T12:14:37.193Z,4.22
2022-08-30T12:17:39.680Z,4.45
2022-08-30T12:20:15.742Z,4.25
2022-08-30T12:22:43.567Z,4.30
2022-08-30T12:25:16.290Z,4.32
2022-08-30T12:27:44.249Z,4.30
2022-08-30T12:30:12.282Z,4.07
2022-08-30T12:32:46.706Z,4.15
2022-08-30T12:35:23.617Z,4.25
2022-08-30T12:38:00.333Z,4.10
2022-08-30T12:40:29.123Z,4.20
2022-08-30T12:43:01.741Z,4.60
2022-08-30T12:45:32.539Z,3.92
2022-08-30T12:48:03.143Z,4.07
2022-08-30T12:50:38.829Z,3.80
2022-08-30T12:53:13.527Z,4.35
2022-08-30T12:55:53.533Z,4.30
2022-08-30T12:58:35.939Z,4.13
2022-08-30T13:01:14.112Z,3.97
2022-08-30T13:03:43.373Z,4.10
2022-08-30T13:06:11.442Z,3.67
2022-08-30T13:08:59.728Z,3.60
2022-08-30T13:11:29.522Z,3.78
2022-08-30T13:14:18.172Z,4.10
2022-08-30T13:16:49.284Z,4.00
2022-08-30T13:19:18.136Z,4.32
2022-08-30T13:21:53.783Z,4.57
2022-08-30T13:24:25.377Z,4.60
2022-08-30T13:26:55.461Z,3.90
2022-08-30T13:29:25.974Z,3.53
2022-08-30T13:31:54.582Z,3.90
2022-08-30T13:34:24.062Z,4.13
2022-08-30T13:36:55.031Z,3.95
2022-08-30T13:39:23.344Z,3.85
2022-08-30T13:41:51.751Z,3.65
2022-08-30T13:44:19.802Z,3.65
2022-08-30T13:47:32.317Z,4.13
2022-08-30T13:49:46.910Z,4.00
2022-08-30T13:52:20.993Z,4.55
2022-08-30T13:54:51.071Z,4.57
2022-08-30T13:57:53.478Z,3.63
2022-08-30T14:00:12.084Z,3.78
2022-08-30T14:02:45.286Z,3.50
2022-08-30T14:05:37.643Z,3.90
2022-08-30T14:08:06.231Z,3.75
2022-08-30T14:10:45.618Z,3.53
2022-08-30T14:13:15.271Z,3.80
2022-08-30T14:15:43.719Z,3.53
2022-08-30T14:18:17.778Z,3.80
2022-08-30T14:20:46.401Z,3.92
2022-08-30T14:23:14.528Z,3.60
2022-08-30T14:25:42.479Z,3.13
2022-08-30T14:28:10.505Z,3.88
2022-08-30T14:30:40.290Z,4.10
2022-08-30T14:33:10.661Z,3.95
2022-08-30T14:38:09.418Z,3.97
2022-08-30T14:40:39.293Z,3.27
2022-08-30T14:43:07.896Z,3.72
2022-08-30T14:45:35.969Z,3.55
2022-08-30T14:48:11.700Z,3.70
2022-08-30T14:50:40.773Z,3.72
2022-08-30T14:53:08.998Z,3.60
2022-08-30T14:55:37.438Z,3.70
2022-08-30T14:58:08.142Z,3.60
2022-08-30T15:00:36.261Z,3.53
2022-08-30T15:03:04.072Z,3.97
2022-08-30T15:05:33.559Z,3.28
2022-08-30T15:08:01.420Z,3.45
2022-08-30T15:10:30.262Z,3.40
2022-08-30T15:12:58.149Z,3.80
2022-08-30T15:15:26.497Z,3.83
2022-08-30T15:17:54.497Z,3.80
2022-08-30T15:20:22.636Z,3.78
2022-08-30T15:22:50.678Z,3.80
2022-08-30T15:25:20.216Z,3.72
2022-08-30T15:27:49.228Z,3.40
2022-08-30T15:30:17.310Z,3.80
2022-08-30T15:32:47.971Z,3.65
2022-08-30T15:35:16.349Z,3.58
2022-08-30T15:37:44.543Z,3.42
2022-08-30T15:40:12.827Z,3.97
2022-08-30T15:42:41.174Z,3.60
2022-08-30T15:45:10.639Z,3.70
2022-08-30T15:47:39.029Z,3.75
2022-08-30T15:50:08.645Z,3.85
2022-08-30T15:52:36.998Z,3.85
2022-08-30T15:55:05.324Z,3.83
2022-08-30T15:57:33.688Z,4.07
2022-08-30T16:00:01.675Z,3.58
2022-08-30T16:02:33.582Z,3.78
2022-08-30T16:05:03.338Z,4.00
2022-08-30T16:07:32.071Z,3.63
2022-08-30T16:10:00.249Z,4.22
2022-08-30T16:12:28.432Z,3.92
2022-08-30T16:14:56.358Z,3.58
2022-08-30T16:17:25.748Z,4.18
2022-08-30T16:19:58.488Z,4.13
2022-08-30T16:22:27.924Z,4.10
2022-08-30T16:24:55.788Z,3.53
2022-08-30T16:27:26.114Z,4.53
2022-08-30T16:29:54.106Z,4.15
2022-08-30T16:32:22.154Z,4.22
2022-08-30T16:34:51.787Z,4.40
2022-08-30T16:37:19.844Z,3.80
2022-08-30T16:39:48.144Z,4.30
2022-08-30T16:42:20.790Z,4.10
2022-08-30T16:44:49.829Z,4.13
2022-08-30T16:47:18.262Z,4.70
2022-08-30T16:49:46.686Z,4.00
2022-08-30T16:52:14.765Z,4.40
2022-08-30T16:54:42.911Z,4.18
2022-08-30T16:57:11.850Z,4.30
2022-08-30T16:59:39.854Z,3.80
2022-08-30T17:02:08.103Z,3.90
2022-08-30T17:04:39.425Z,3.65
2022-08-30T17:07:07.522Z,4.40
2022-08-30T17:09:42.171Z,4.60
2022-08-30T17:12:10.188Z,4.72
2022-08-30T17:14:38.188Z,4.32
2022-08-30T17:17:07.199Z,4.55
2022-08-30T17:19:40.982Z,4.63
2022-08-30T17:22:12.981Z,5.10
2022-08-30T17:24:41.376Z,5.30
2022-08-30T17:27:11.744Z,4.20
2022-08-30T17:29:39.803Z,4.47
2022-08-30T17:32:08.150Z,4.53
2022-08-30T17:34:36.865Z,4.93
2022-08-30T17:37:04.750Z,4.93
2022-08-30T17:39:32.893Z,4.35
2022-08-30T17:42:01.058Z,5.13
2022-08-30T17:44:32.047Z,4.68
2022-08-30T17:47:00.345Z,4.60
2022-08-30T17:49:30.131Z,4.60
2022-08-30T17:51:58.806Z,4.45
2022-08-30T17:54:27.803Z,4.88
2022-08-30T17:56:56.545Z,4.85
2022-08-30T17:59:25.530Z,4.70
2022-08-30T18:01:53.994Z,4.85
2022-08-30T18:04:24.821Z,4.90
2022-08-30T18:06:53.356Z,5.18
2022-08-30T18:09:21.171Z,5.30
2022-08-30T18:11:49.525Z,4.93
2022-08-30T18:14:19.271Z,5.05
2022-08-30T18:16:53.816Z,4.53
2022-08-30T18:19:26.246Z,5.15
2022-08-30T18:21:54.822Z,5.35
2022-08-30T18:24:23.663Z,5.03
2022-08-30T18:26:52.750Z,4.85
2022-08-30T18:29:29.336Z,4.68
2022-08-30T18:32:00.159Z,4.80
2022-08-30T18:34:28.152Z,4.97
2022-08-30T18:36:56.439Z,4.90
2022-08-30T18:39:24.387Z,5.07
2022-08-30T18:41:54.253Z,5.18
2022-08-30T18:44:43.544Z,5.05
2022-08-30T18:47:12.153Z,5.25
2022-08-30T18:49:40.123Z,5.00
2022-08-30T18:52:09.369Z,4.85
2022-08-30T18:54:41.228Z,5.22
2022-08-30T18:57:09.930Z,4.88
2022-08-30T18:59:38.364Z,4.93
2022-08-30T19:02:07.755Z,4.72
2022-08-30T19:07:06.572Z,4.68
2022-08-30T19:09:34.640Z,5.50
2022-08-30T19:12:02.924Z,5.47
2022-08-30T19:14:31.289Z,5.18
2022-08-30T19:17:06.036Z,4.90
2022-08-30T19:19:37.295Z,4.43
2022-08-30T19:22:14.265Z,6.18
2022-08-30T19:24:42.673Z,5.90
2022-08-30T19:27:11.439Z,5.25
2022-08-30T19:29:40.595Z,5.75
2022-08-30T19:32:08.404Z,5.22
2022-08-30T19:34:38.474Z,4.60
2022-08-30T19:37:06.282Z,5.97
2022-08-30T19:39:34.822Z,5.38
2022-08-30T19:42:03.392Z,5.80
2022-08-30T19:44:31.422Z,5.72
2022-08-30T19:47:00.871Z,5.13
2022-08-30T19:49:28.664Z,5.13
2022-08-30T19:51:56.805Z,5.00
2022-08-30T19:54:25.110Z,5.65
2022-08-30T19:56:52.893Z,5.85
2022-08-30T19:59:21.492Z,5.82
2022-08-30T20:01:49.685Z,6.15
2022-08-30T20:04:18.112Z,6.20
2022-08-30T20:06:46.619Z,5.60
2022-08-30T20:09:15.556Z,5.40
2022-08-30T20:11:44.847Z,5.57
2022-08-30T20:14:17.261Z,5.38
2022-08-30T20:16:45.981Z,5.95
2022-08-30T20:19:16.051Z,5.03
2022-08-30T20:21:47.366Z,6.03
2022-08-30T20:24:18.149Z,5.90
2022-08-30T20:26:46.465Z,5.68
2022-08-30T20:29:14.933Z,5.78
2022-08-30T20:31:42.828Z,5.93
2022-08-30T20:34:11.015Z,6.40
2022-08-30T20:36:41.160Z,5.32
2022-08-30T20:39:11.816Z,5.32
2022-08-30T20:41:46.116Z,5.68
2022-08-30T20:44:15.072Z,5.32
2022-08-30T20:46:50.871Z,5.35
2022-08-30T20:49:20.911Z,5.93
2022-08-30T20:51:52.957Z,5.30
2022-08-30T20:54:22.638Z,5.60
2022-08-30T20:56:51.390Z,5.40
2022-08-30T20:59:19.525Z,5.57
2022-08-30T21:01:49.024Z,5.80
2022-08-30T21:04:18.246Z,5.82
2022-08-30T21:06:46.507Z,5.93
2022-08-30T21:09:14.707Z,5.70
2022-08-30T21:11:44.426Z,6.32
2022-08-30T21:14:12.715Z,6.22
2022-08-30T21:16:40.805Z,6.32
2022-08-30T21:19:08.724Z,6.18
2022-08-30T21:21:36.501Z,5.57
2022-08-30T21:24:10.658Z,6.45
2022-08-30T21:26:39.446Z,5.68
2022-08-30T21:29:07.894Z,6.63
2022-08-30T21:31:38.963Z,6.72
2022-08-30T21:34:07.396Z,6.35
2022-08-30T21:36:48.691Z,6.60
2022-08-30T21:39:21.694Z,5.95
2022-08-30T21:41:50.779Z,5.65
2022-08-30T21:44:20.630Z,6.50
2022-08-30T21:46:49.459Z,5.63
2022-08-30T21:49:20.387Z,6.88
2022-08-30T21:51:48.963Z,6.30
2022-08-30T21:54:17.855Z,7.95
2022-08-30T21:56:47.594Z,6.68
2022-08-30T21:59:15.829Z,5.68
2022-08-30T22:01:44.906Z,6.53
2022-08-30T22:04:13.979Z,6.05
2022-08-30T22:06:43.007Z,6.63
2022-08-30T22:09:14.745Z,6.80
2022-08-30T22:11:43.469Z,7.43
2022-08-30T22:14:12.718Z,7.70
2022-08-30T22:16:41.814Z,7.88
2022-08-30T22:19:09.833Z,7.88
2022-08-30T22:21:38.447Z,7.53
2022-08-30T22:24:06.520Z,6.78
2022-08-30T22:26:34.959Z,6.18
2022-08-30T22:29:03.642Z,6.03
2022-08-30T22:31:31.810Z,6.93
2022-08-30T22:34:00.033Z,6.75
2022-08-30T22:36:32.786Z,7.22
2022-08-30T22:39:02.257Z,6.75
2022-08-30T22:41:35.455Z,7.03
2022-08-30T22:44:03.827Z,7.00
2022-08-30T22:46:34.168Z,7.47
2022-08-30T22:49:03.562Z,7.55
2022-08-30T22:51:31.450Z,6.70
2022-08-30T22:53:59.505Z,6.40
2022-08-30T22:56:27.509Z,7.15
2022-08-30T22:58:55.944Z,6.85
2022-08-30T23:01:25.765Z,6.60
2022-08-30T23:03:53.771Z,8.30
2022-08-30T23:06:21.693Z,7.47
2022-08-30T23:08:50.867Z,7.30
2022-08-30T23:11:19.025Z,7.60
2022-08-30T23:13:46.869Z,7.70
2022-08-30T23:16:16.025Z,7.93
2022-08-30T23:18:45.633Z,8.10
2022-08-30T23:21:19.681Z,7.68
2022-08-30T23:24:06.021Z,7.40
2022-08-30T23:26:52.339Z,8.02
2022-08-30T23:29:39.013Z,7.93
2022-08-30T23:32:25.845Z,8.13
2022-08-30T23:35:12.145Z,7.50
2022-08-30T23:37:58.748Z,6.68
2022-08-30T23:40:45.107Z,7.18
2022-08-30T23:43:31.731Z,8.00
2022-08-30T23:46:19.573Z,7.30
2022-08-30T23:49:09.167Z,7.90
2022-08-30T23:51:56.347Z,8.02
2022-08-30T23:54:42.958Z,9.15
2022-08-30T23:57:29.000Z,8.15
